createdAt,value
2018-08-25T00:02:15.398Z,15.70
2018-08-25T00:04:44.477Z,15.70
2018-08-25T00:07:13.010Z,15.60
2018-08-25T00:09:41.175Z,15.70
2018-08-25T00:12:09.687Z,15.60
2018-08-25T00:14:38.490Z,15.70
2018-08-25T00:17:07.084Z,15.70
2018-08-25T00:19:35.498Z,15.90
2018-08-25T00:22:03.974Z,15.80
2018-08-25T00:24:32.487Z,15.60
2018-08-25T00:27:00.870Z,15.80
2018-08-25T00:29:29.587Z,15.90
2018-08-25T00:31:58.567Z,15.80
2018-08-25T00:34:27.437Z,15.90
2018-08-25T00:36:56.620Z,15.80
2018-08-25T00:39:24.898Z,15.80
2018-08-25T00:41:53.832Z,15.80
2018-08-25T00:44:22.279Z,16.00
2018-08-25T00:46:50.701Z,16.10
2018-08-25T00:49:19.383Z,15.90
2018-08-25T00:51:47.859Z,15.90
2018-08-25T00:54:16.015Z,15.80
2018-08-25T00:56:44.558Z,15.70
2018-08-25T00:59:13.206Z,15.70
2018-08-25T01:01:41.581Z,15.70
2018-08-25T01:04:09.893Z,15.80
2018-08-25T01:06:38.621Z,15.80
2018-08-25T01:09:07.809Z,15.80
2018-08-25T01:11:36.144Z,15.70
2018-08-25T01:14:04.889Z,15.50
2018-08-25T01:16:33.715Z,15.50
2018-08-25T01:19:02.078Z,15.50
2018-08-25T01:21:30.764Z,15.30
2018-08-25T01:23:59.074Z,15.10
2018-08-25T01:26:27.437Z,15.10
2018-08-25T01:28:56.040Z,15.20
2018-08-25T01:31:27.624Z,15.30
2018-08-25T01:33:56.387Z,15.30
2018-08-25T01:36:24.964Z,15.40
2018-08-25T01:38:54.160Z,15.40
2018-08-25T01:41:23.042Z,15.50
2018-08-25T01:43:52.493Z,15.40
2018-08-25T01:46:21.115Z,15.30
2018-08-25T01:48:50.272Z,15.40
2018-08-25T01:51:19.921Z,15.40
2018-08-25T01:53:49.256Z,15.40
2018-08-25T01:56:17.899Z,15.40
2018-08-25T01:58:46.766Z,15.50
2018-08-25T02:01:15.362Z,15.30
2018-08-25T02:03:44.407Z,15.10
2018-08-25T02:06:13.021Z,15.00
2018-08-25T02:08:41.368Z,15.10
2018-08-25T02:11:09.946Z,14.90
2018-08-25T02:13:38.787Z,14.80
2018-08-25T02:16:07.377Z,15.10
2018-08-25T02:18:35.962Z,15.20
2018-08-25T02:21:04.973Z,15.40
2018-08-25T02:23:33.340Z,15.40
2018-08-25T02:26:01.889Z,15.30
2018-08-25T02:28:30.767Z,15.40
2018-08-25T02:30:59.397Z,15.40
2018-08-25T02:33:27.859Z,15.40
2018-08-25T02:35:56.983Z,15.40
2018-08-25T02:38:25.960Z,15.40
2018-08-25T02:40:54.513Z,15.40
2018-08-25T02:43:23.663Z,15.10
2018-08-25T02:45:52.305Z,14.90
2018-08-25T02:48:20.853Z,14.70
2018-08-25T02:50:49.767Z,14.70
2018-08-25T02:53:18.105Z,14.70
2018-08-25T02:55:46.795Z,14.60
2018-08-25T02:58:15.613Z,14.50
2018-08-25T03:00:44.348Z,14.40
2018-08-25T03:03:12.839Z,14.60
2018-08-25T03:05:41.876Z,14.70
2018-08-25T03:08:10.744Z,14.70
2018-08-25T03:10:39.124Z,14.60
2018-08-25T03:13:07.715Z,14.70
2018-08-25T03:15:36.224Z,14.70
2018-08-25T03:18:04.776Z,14.60
2018-08-25T03:20:33.290Z,14.60
2018-08-25T03:23:01.486Z,14.70
2018-08-25T03:25:29.831Z,14.70
2018-08-25T03:27:58.873Z,14.60
2018-08-25T03:30:27.056Z,14.60
2018-08-25T03:32:55.342Z,14.70
2018-08-25T03:35:24.223Z,14.70
2018-08-25T03:37:52.341Z,14.70
2018-08-25T03:40:21.025Z,14.80
2018-08-25T03:42:49.453Z,14.80
2018-08-25T03:45:17.828Z,14.90
2018-08-25T03:47:46.346Z,14.90
2018-08-25T03:50:14.832Z,14.90
2018-08-25T03:52:42.987Z,14.70
2018-08-25T03:55:11.394Z,14.70
2018-08-25T03:57:40.771Z,14.80
2018-08-25T04:00:09.309Z,14.80
2018-08-25T04:02:37.887Z,14.70
2018-08-25T04:05:07.229Z,14.80
2018-08-25T04:07:36.089Z,14.80
2018-08-25T04:10:04.614Z,14.60
2018-08-25T04:12:33.010Z,14.40
2018-08-25T04:15:01.424Z,14.50
2018-08-25T04:17:29.424Z,14.30
2018-08-25T04:19:57.968Z,14.30
2018-08-25T04:22:26.254Z,14.30
2018-08-25T04:24:54.511Z,14.30
2018-08-25T04:27:23.247Z,14.50
2018-08-25T04:29:51.617Z,14.50
2018-08-25T04:32:20.464Z,14.40
2018-08-25T04:34:48.997Z,14.20
2018-08-25T04:37:17.146Z,14.40
2018-08-25T04:39:45.735Z,14.40
2018-08-25T04:42:14.178Z,14.60
2018-08-25T04:44:42.445Z,14.60
2018-08-25T04:47:10.717Z,14.40
2018-08-25T04:49:40.228Z,14.00
2018-08-25T04:52:08.662Z,14.00
2018-08-25T04:54:36.874Z,13.90
2018-08-25T04:57:05.349Z,14.20
2018-08-25T04:59:33.402Z,14.40
2018-08-25T05:02:02.234Z,14.40
2018-08-25T05:04:30.638Z,14.40
2018-08-25T05:06:58.889Z,14.50
2018-08-25T05:09:26.957Z,14.60
2018-08-25T05:11:55.696Z,14.60
2018-08-25T05:14:23.862Z,14.50
2018-08-25T05:16:52.008Z,14.60
2018-08-25T05:19:20.557Z,14.60
2018-08-25T05:21:48.836Z,14.70
2018-08-25T05:24:16.973Z,14.60
2018-08-25T05:26:45.242Z,14.70
2018-08-25T05:29:13.467Z,14.40
2018-08-25T05:31:41.848Z,14.20
2018-08-25T05:34:10.226Z,14.00
2018-08-25T05:36:38.508Z,14.00
2018-08-25T05:39:07.145Z,14.20
2018-08-25T05:41:39.958Z,14.20
2018-08-25T05:44:08.231Z,14.30
2018-08-25T05:46:36.513Z,14.30
2018-08-25T05:49:05.076Z,13.90
2018-08-25T05:51:33.383Z,13.80
2018-08-25T05:54:01.437Z,13.80
2018-08-25T05:56:30.080Z,14.00
2018-08-25T05:58:58.328Z,14.30
2018-08-25T06:01:26.995Z,14.40
2018-08-25T06:03:55.774Z,14.40
2018-08-25T06:06:24.360Z,14.50
2018-08-25T06:08:52.883Z,14.60
2018-08-25T06:11:23.637Z,14.70
2018-08-25T06:13:51.926Z,14.40
2018-08-25T06:16:20.184Z,14.40
2018-08-25T06:18:48.902Z,14.40
2018-08-25T06:21:17.839Z,14.70
2018-08-25T06:23:46.290Z,14.70
2018-08-25T06:26:14.628Z,14.90
2018-08-25T06:28:42.720Z,14.90
2018-08-25T06:31:11.230Z,15.00
2018-08-25T06:33:39.580Z,15.00
2018-08-25T06:36:08.370Z,14.80
2018-08-25T06:38:36.563Z,14.90
2018-08-25T06:41:04.806Z,14.80
2018-08-25T06:43:33.497Z,14.80
2018-08-25T06:46:09.784Z,14.80
2018-08-25T06:48:40.727Z,14.80
2018-08-25T06:51:09.277Z,14.10
2018-08-25T06:53:37.938Z,13.90
2018-08-25T06:56:07.693Z,14.10
2018-08-25T06:58:36.304Z,14.50
2018-08-25T07:01:04.733Z,14.70
2018-08-25T07:03:33.763Z,14.50
2018-08-25T07:06:01.918Z,14.70
2018-08-25T07:08:30.698Z,14.90
2018-08-25T07:10:59.514Z,15.10
2018-08-25T07:13:29.034Z,15.30
2018-08-25T07:15:57.831Z,15.50
2018-08-25T07:18:26.535Z,15.50
2018-08-25T07:20:56.460Z,15.60
2018-08-25T07:23:25.269Z,15.60
2018-08-25T07:25:55.071Z,15.60
2018-08-25T07:28:23.170Z,15.70
2018-08-25T07:30:52.704Z,15.80
2018-08-25T07:33:21.510Z,15.70
2018-08-25T07:35:50.830Z,15.80
2018-08-25T07:38:19.390Z,16.00
2018-08-25T07:40:48.476Z,15.60
2018-08-25T07:43:18.443Z,15.30
2018-08-25T07:45:47.461Z,15.70
2018-08-25T07:48:18.390Z,15.50
2018-08-25T07:50:49.132Z,15.70
2018-08-25T07:53:17.391Z,15.60
2018-08-25T07:55:46.463Z,15.40
2018-08-25T07:58:15.778Z,15.50
2018-08-25T08:00:48.310Z,15.60
2018-08-25T08:03:17.275Z,15.80
2018-08-25T08:05:45.978Z,16.00
2018-08-25T08:08:14.288Z,16.10
2018-08-25T08:10:43.059Z,16.30
2018-08-25T08:13:11.453Z,16.40
2018-08-25T08:15:40.004Z,16.50
2018-08-25T08:18:08.905Z,16.60
2018-08-25T08:20:37.013Z,16.50
2018-08-25T08:23:05.726Z,16.60
2018-08-25T08:25:35.177Z,16.40
2018-08-25T08:28:03.627Z,16.50
2018-08-25T08:30:34.876Z,16.40
2018-08-25T08:33:05.020Z,16.30
2018-08-25T08:35:37.948Z,16.40
2018-08-25T08:38:06.575Z,16.40
2018-08-25T08:40:35.534Z,16.30
2018-08-25T08:43:04.404Z,16.20
2018-08-25T08:45:34.007Z,16.10
2018-08-25T08:48:02.651Z,16.00
2018-08-25T08:50:31.798Z,15.90
2018-08-25T08:52:59.999Z,15.80
2018-08-25T08:55:28.825Z,15.80
2018-08-25T08:57:57.277Z,16.00
2018-08-25T09:00:26.258Z,16.10
2018-08-25T09:06:15.583Z,16.30
2018-08-25T09:08:44.170Z,16.20
2018-08-25T09:11:19.390Z,16.40
2018-08-25T09:13:48.809Z,16.50
2018-08-25T09:16:17.492Z,16.60
2018-08-25T09:18:45.639Z,16.60
2018-08-25T09:21:13.746Z,16.80
2018-08-25T09:23:43.611Z,16.90
2018-08-25T09:26:13.505Z,17.00
2018-08-25T09:28:42.113Z,17.10
2018-08-25T09:31:19.401Z,17.10
2018-08-25T09:33:50.571Z,17.00
2018-08-25T09:36:20.314Z,17.10
2018-08-25T09:38:48.872Z,17.40
2018-08-25T09:41:25.312Z,17.80
2018-08-25T09:43:55.742Z,17.80
2018-08-25T09:46:29.860Z,18.10
2018-08-25T09:49:01.174Z,18.10
2018-08-25T09:51:29.933Z,18.20
2018-08-25T09:54:03.077Z,18.30
2018-08-25T09:56:32.730Z,18.30
2018-08-25T09:59:02.116Z,18.50
2018-08-25T10:01:33.024Z,18.10
2018-08-25T10:04:01.775Z,18.00
2018-08-25T10:06:30.842Z,18.10
2018-08-25T10:09:00.054Z,18.00
2018-08-25T10:11:30.881Z,18.00
2018-08-25T10:14:00.040Z,18.20
2018-08-25T10:16:28.190Z,18.30
2018-08-25T10:18:56.952Z,18.20
2018-08-25T10:22:49.856Z,18.10
2018-08-25T10:25:18.483Z,18.30
2018-08-25T10:27:48.149Z,18.50
2018-08-25T10:30:16.732Z,18.70
2018-08-25T10:32:46.072Z,18.50
2018-08-25T10:35:14.940Z,18.80
2018-08-25T10:37:44.444Z,18.80
2018-08-25T10:40:12.746Z,18.90
2018-08-25T10:42:41.542Z,18.70
2018-08-25T10:45:09.710Z,18.70
2018-08-25T10:47:38.266Z,18.60
2018-08-25T10:50:34.891Z,18.30
2018-08-25T10:53:03.334Z,18.10
2018-08-25T10:55:32.372Z,18.30
2018-08-25T10:58:00.897Z,17.70
2018-08-25T11:00:29.583Z,17.50
2018-08-25T11:02:59.094Z,17.60
2018-08-25T11:05:27.298Z,17.80
2018-08-25T11:07:57.234Z,18.20
2018-08-25T11:10:26.413Z,18.70
2018-08-25T11:12:55.854Z,18.80
2018-08-25T11:15:24.234Z,18.60
2018-08-25T11:18:05.381Z,18.50
2018-08-25T11:20:36.538Z,18.60
2018-08-25T11:23:06.332Z,18.70
2018-08-25T11:25:35.531Z,18.60
2018-08-25T11:28:07.428Z,18.90
2018-08-25T11:30:38.145Z,18.90
2018-08-25T11:33:07.241Z,19.20
2018-08-25T11:35:36.047Z,19.40
2018-08-25T11:38:04.511Z,19.30
2018-08-25T11:40:32.943Z,18.90
2018-08-25T11:50:16.494Z,18.00
2018-08-25T11:52:59.537Z,17.70
2018-08-25T11:55:35.545Z,17.90
2018-08-25T11:58:06.683Z,17.80
2018-08-25T12:00:36.669Z,17.20
2018-08-25T12:03:05.000Z,16.90
2018-08-25T12:05:34.029Z,17.10
2018-08-25T12:08:04.828Z,16.80
2018-08-25T12:10:34.750Z,16.80
2018-08-25T12:13:04.426Z,16.80
2018-08-25T12:15:32.508Z,17.00
2018-08-25T12:18:01.160Z,17.30
2018-08-25T12:20:29.991Z,17.40
2018-08-25T12:22:58.629Z,17.50
2018-08-25T12:25:27.048Z,17.20
2018-08-25T12:27:56.068Z,17.20
2018-08-25T12:30:25.195Z,17.10
2018-08-25T12:32:53.937Z,17.30
2018-08-25T12:35:22.698Z,17.40
2018-08-25T12:37:51.425Z,17.40
2018-08-25T12:40:20.301Z,17.30
2018-08-25T12:42:50.579Z,17.20
2018-08-25T12:45:21.216Z,17.20
2018-08-25T12:47:49.912Z,17.10
2018-08-25T12:50:19.945Z,17.20
2018-08-25T12:52:48.488Z,17.20
2018-08-25T12:55:17.026Z,17.30
2018-08-25T12:57:46.014Z,17.40
2018-08-25T13:00:14.416Z,17.10
2018-08-25T13:02:43.362Z,16.90
2018-08-25T13:05:20.124Z,16.80
2018-08-25T13:07:49.153Z,16.70
2018-08-25T13:10:19.611Z,16.40
2018-08-25T13:12:49.569Z,16.50
2018-08-25T13:15:20.956Z,16.30
2018-08-25T13:17:51.743Z,16.20
2018-08-25T13:20:21.235Z,15.90
2018-08-25T13:22:55.003Z,15.60
2018-08-25T13:25:25.984Z,15.40
2018-08-25T13:28:09.776Z,15.50
2018-08-25T13:30:43.351Z,15.60
2018-08-25T13:33:12.778Z,15.50
2018-08-25T13:35:42.522Z,15.60
2018-08-25T13:38:11.555Z,15.90
2018-08-25T13:40:40.588Z,16.10
2018-08-25T13:44:23.684Z,16.20
2018-08-25T13:46:59.533Z,16.40
2018-08-25T13:49:29.589Z,16.30
2018-08-25T13:51:57.716Z,16.40
2018-08-25T13:54:25.992Z,16.40
2018-08-25T13:57:07.375Z,16.50
2018-08-25T13:59:35.474Z,16.50
2018-08-25T14:02:04.122Z,16.50
2018-08-25T14:04:32.181Z,16.50
2018-08-25T14:07:01.372Z,16.40
2018-08-25T14:09:29.953Z,16.30
2018-08-25T14:11:58.484Z,16.40
2018-08-25T14:14:26.733Z,16.30
2018-08-25T14:16:58.695Z,15.90
2018-08-25T14:19:26.959Z,15.70
2018-08-25T14:21:55.278Z,16.00
2018-08-25T14:24:24.070Z,16.00
2018-08-25T14:27:07.979Z,16.00
2018-08-25T14:35:41.324Z,15.90
2018-08-25T14:38:09.392Z,16.00
2018-08-25T14:40:38.100Z,15.70
2018-08-25T14:43:16.078Z,15.70
2018-08-25T14:45:44.321Z,15.80
2018-08-25T14:48:14.218Z,16.00
2018-08-25T14:50:45.416Z,15.90
2018-08-25T14:53:16.149Z,15.80
2018-08-25T14:55:46.832Z,15.70
2018-08-25T14:58:15.460Z,15.70
2018-08-25T15:00:43.946Z,15.60
2018-08-25T15:03:14.277Z,15.60
2018-08-25T15:05:43.476Z,15.10
2018-08-25T15:09:19.653Z,15.20
2018-08-25T15:11:48.102Z,15.20
2018-08-25T15:14:16.261Z,15.10
2018-08-25T15:16:44.758Z,15.00
2018-08-25T15:19:14.766Z,14.50
2018-08-25T15:21:43.294Z,14.50
2018-08-25T15:24:11.862Z,14.60
2018-08-25T15:26:40.551Z,14.60
2018-08-25T15:29:09.464Z,14.80
2018-08-25T15:31:38.020Z,15.00
2018-08-25T15:34:06.798Z,15.10
2018-08-25T15:36:35.058Z,15.20
2018-08-25T15:39:03.693Z,15.20
2018-08-25T15:41:32.873Z,15.30
2018-08-25T15:44:11.408Z,15.30
2018-08-25T15:46:45.835Z,15.20
2018-08-25T15:49:14.514Z,15.20
2018-08-25T15:51:42.856Z,15.20
2018-08-25T15:54:15.676Z,15.10
2018-08-25T15:56:48.926Z,15.00
2018-08-25T15:59:17.926Z,14.90
2018-08-25T16:01:46.307Z,14.80
2018-08-25T16:04:14.635Z,14.40
2018-08-25T16:06:43.122Z,14.20
2018-08-25T16:10:16.512Z,14.10
2018-08-25T16:12:45.823Z,14.10
2018-08-25T16:15:18.873Z,13.50
2018-08-25T16:17:47.698Z,13.50
2018-08-25T16:20:16.071Z,13.50
2018-08-25T16:22:44.567Z,13.40
2018-08-25T16:25:14.433Z,13.60
2018-08-25T16:27:43.078Z,13.80
2018-08-25T16:30:11.350Z,13.80
2018-08-25T16:32:42.694Z,13.80
2018-08-25T16:35:11.356Z,13.90
2018-08-25T16:37:40.382Z,13.60
2018-08-25T16:40:09.018Z,13.60
2018-08-25T16:42:38.283Z,13.60
2018-08-25T16:45:06.727Z,13.60
2018-08-25T16:47:35.102Z,13.60
2018-08-25T16:50:04.160Z,13.70
2018-08-25T16:52:32.944Z,13.80
2018-08-25T16:55:01.512Z,13.60
2018-08-25T16:57:30.502Z,13.50
2018-08-25T16:59:58.919Z,13.50
2018-08-25T17:02:27.350Z,13.60
2018-08-25T17:04:55.701Z,13.60
2018-08-25T17:07:24.095Z,13.60
2018-08-25T17:09:52.306Z,13.70
2018-08-25T17:12:43.271Z,13.70
2018-08-25T17:15:12.124Z,13.70
2018-08-25T17:17:41.011Z,13.60
2018-08-25T17:20:09.602Z,13.60
2018-08-25T17:22:41.425Z,13.30
2018-08-25T17:25:09.893Z,13.00
2018-08-25T17:27:38.434Z,12.90
2018-08-25T17:30:07.511Z,13.00
2018-08-25T17:33:08.791Z,13.00
2018-08-25T17:35:43.520Z,13.00
2018-08-25T17:38:12.221Z,13.10
2018-08-25T17:40:40.676Z,13.20
2018-08-25T17:43:10.034Z,13.30
2018-08-25T17:45:38.207Z,13.30
2018-08-25T17:48:09.626Z,13.20
2018-08-25T17:54:06.047Z,13.30
2018-08-25T17:56:34.565Z,13.30
2018-08-25T17:59:03.162Z,13.30
2018-08-25T18:01:31.682Z,13.30
2018-08-25T18:04:01.083Z,13.20
2018-08-25T18:06:29.837Z,13.00
2018-08-25T18:09:01.189Z,13.00
2018-08-25T18:11:29.642Z,12.90
2018-08-25T18:16:37.670Z,12.60
2018-08-25T18:19:06.046Z,12.70
2018-08-25T18:21:34.275Z,12.80
2018-08-25T18:24:02.845Z,12.70
2018-08-25T18:26:31.167Z,12.50
2018-08-25T18:28:59.428Z,12.70
2018-08-25T18:31:28.745Z,12.80
2018-08-25T18:33:59.528Z,12.90
2018-08-25T18:36:29.656Z,13.00
2018-08-25T18:38:58.247Z,13.00
2018-08-25T18:41:26.824Z,13.00
2018-08-25T18:43:56.624Z,13.00
2018-08-25T18:46:26.106Z,12.90
2018-08-25T18:48:58.287Z,12.50
2018-08-25T18:51:27.085Z,12.70
2018-08-25T18:53:55.938Z,12.70
2018-08-25T18:57:25.494Z,12.80
2018-08-25T18:59:54.168Z,12.80
2018-08-25T19:02:28.955Z,12.90
2018-08-25T19:04:59.455Z,12.70
2018-08-25T19:07:28.286Z,12.60
2018-08-25T19:09:57.868Z,12.30
2018-08-25T19:12:26.402Z,12.30
2018-08-25T19:14:54.713Z,12.00
2018-08-25T19:17:25.607Z,12.10
2018-08-25T19:19:53.886Z,12.30
2018-08-25T19:22:24.924Z,12.40
2018-08-25T19:24:53.617Z,12.10
2018-08-25T19:27:21.772Z,12.30
2018-08-25T19:29:50.415Z,12.40
2018-08-25T19:32:19.198Z,12.50
2018-08-25T19:34:47.550Z,12.30
2018-08-25T19:37:19.793Z,12.20
2018-08-25T19:39:48.386Z,12.30
2018-08-25T19:42:16.796Z,12.50
2018-08-25T19:44:45.525Z,12.60
2018-08-25T19:47:14.149Z,12.60
2018-08-25T19:49:42.805Z,12.30
2018-08-25T19:52:11.406Z,12.40
2018-08-25T19:54:39.865Z,12.30
2018-08-25T19:57:08.548Z,12.20
2018-08-25T19:59:37.633Z,12.30
2018-08-25T20:02:06.210Z,12.40
2018-08-25T20:04:36.792Z,12.30
2018-08-25T20:07:05.563Z,12.40
2018-08-25T20:09:34.267Z,12.50
2018-08-25T20:12:02.633Z,12.20
2018-08-25T20:14:31.063Z,12.40
2018-08-25T20:16:59.817Z,12.50
2018-08-25T20:19:28.190Z,12.30
2018-08-25T20:21:56.536Z,12.40
2018-08-25T20:24:25.324Z,12.50
2018-08-25T20:26:53.785Z,12.60
2018-08-25T20:29:22.914Z,12.60
2018-08-25T20:31:51.446Z,12.50
2018-08-25T20:34:19.597Z,12.60
2018-08-25T20:36:48.034Z,12.60
2018-08-25T20:39:16.407Z,12.60
2018-08-25T20:41:44.844Z,12.30
2018-08-25T20:44:13.151Z,12.30
2018-08-25T20:46:41.917Z,12.10
2018-08-25T20:49:10.085Z,12.10
2018-08-25T20:51:38.815Z,12.20
2018-08-25T20:54:07.261Z,12.00
2018-08-25T20:56:35.670Z,12.10
2018-08-25T20:59:04.257Z,12.00
2018-08-25T21:01:33.875Z,12.00
2018-08-25T21:04:02.198Z,12.00
2018-08-25T21:06:31.133Z,12.00
2018-08-25T21:08:59.358Z,12.00
2018-08-25T21:11:27.821Z,12.10
2018-08-25T21:13:56.804Z,12.00
2018-08-25T21:16:25.487Z,12.20
2018-08-25T21:18:53.841Z,12.20
2018-08-25T21:21:22.762Z,12.20
2018-08-25T21:23:52.317Z,12.30
2018-08-25T21:27:28.153Z,12.30
2018-08-25T21:29:56.963Z,12.30
2018-08-25T21:32:25.401Z,12.40
2018-08-25T21:34:54.473Z,12.20
2018-08-25T21:37:22.918Z,12.30
2018-08-25T21:39:51.641Z,12.00
2018-08-25T21:42:20.501Z,12.20
2018-08-25T21:44:49.024Z,12.20
2018-08-25T21:47:20.787Z,12.30
2018-08-25T21:49:49.850Z,12.30
2018-08-25T21:52:18.306Z,12.40
2018-08-25T21:54:46.694Z,12.40
2018-08-25T21:57:15.379Z,12.40
2018-08-25T21:59:44.471Z,12.40
2018-08-25T22:02:18.790Z,12.40
2018-08-25T22:04:47.435Z,12.40
2018-08-25T22:07:16.004Z,12.40
2018-08-25T22:09:44.398Z,12.30
2018-08-25T22:12:12.850Z,12.40
2018-08-25T22:14:42.464Z,11.90
2018-08-25T22:17:11.845Z,12.00
2018-08-25T22:19:43.898Z,12.10
2018-08-25T22:22:12.351Z,12.10
2018-08-25T22:24:40.892Z,12.10
2018-08-25T22:27:09.927Z,11.90
2018-08-25T22:29:38.050Z,11.90
2018-08-25T22:32:06.785Z,12.00
2018-08-25T22:34:35.626Z,12.10
2018-08-25T22:37:04.858Z,12.10
2018-08-25T22:39:33.834Z,12.10
2018-08-25T22:42:02.378Z,12.00
2018-08-25T22:44:30.506Z,12.00
2018-08-25T22:46:59.202Z,11.90
2018-08-25T22:49:27.990Z,11.90
2018-08-25T22:51:56.271Z,11.80
2018-08-25T22:54:24.521Z,11.70
2018-08-25T22:56:53.554Z,11.50
2018-08-25T22:59:21.861Z,11.50
2018-08-25T23:01:50.153Z,11.30
2018-08-25T23:04:18.648Z,11.40
2018-08-25T23:06:46.954Z,11.40
2018-08-25T23:09:15.042Z,11.30
2018-08-25T23:11:44.359Z,11.20
2018-08-25T23:14:12.913Z,11.10
2018-08-25T23:16:42.390Z,11.00
2018-08-25T23:19:10.832Z,11.10
2018-08-25T23:21:39.384Z,11.20
2018-08-25T23:24:08.181Z,11.20
2018-08-25T23:26:36.882Z,11.10
2018-08-25T23:29:09.561Z,11.20
2018-08-25T23:31:38.029Z,11.10
2018-08-25T23:34:08.911Z,10.90
2018-08-25T23:36:40.127Z,10.90
2018-08-25T23:39:11.020Z,10.80
2018-08-25T23:41:39.829Z,11.10
2018-08-25T23:44:09.784Z,11.30
2018-08-25T23:46:38.197Z,11.30
2018-08-25T23:49:06.740Z,11.30
2018-08-25T23:51:35.143Z,11.40
2018-08-25T23:54:03.310Z,11.40
2018-08-25T23:56:31.706Z,10.90
2018-08-25T23:58:59.964Z,10.80
